Lipscomb, TX (79056)

7:24 PM CDT on April 29, 2017 (GMT -0500)
Darrouzett - South Elm St. | | Change Station

Elev 2579 ft 36.44 °N, 100.33 °W | Updated 4 seconds ago

Overcast
Overcast
39.9 °F
Feels Like 31 °F
N
16.1
Wind Variable Wind from North
Gusts 19.9 mph

Today
High -- | Low -- °F
--% Chance of Precip.
Yesterday
High -- | Low -- °F
Precip. -- in
Pressure 29.81 in
Visibility 10.0 miles
Clouds Mostly Cloudy 1100 ft
Overcast 1500 ft
Windchill 31 °F
Dew Point 40 °F
Humidity 99%
Rainfall 0.15 in
Snow Depth Not available.
6:50 AM 8:27 PM
Waxing Crescent, 17% visible
METAR KHHF 300015Z AUTO 35018G23KT 10SM DZ BKN011 OVC015 06/05 A2981 RMK AO2 T00570050
Pressure 29.81 in
Visibility 10.0 miles
Clouds Mostly Cloudy 1100 ft
Overcast 1500 ft
Windchill 31 °F
Dew Point 40 °F
Humidity 99%
Rainfall 0.15 in
Snow Depth Not available.
6:50 AM 8:27 PM
Waxing Crescent, 17% visible
METAR KHHF 300015Z AUTO 35018G23KT 10SM DZ BKN011 OVC015 06/05 A2981 RMK AO2 T00570050

Get Severe Weather Alerts

Thanks for signing up!

Be on the lookout for a verification email in your inbox.

You'll start receiving the daily forecast at 8 AM.

×

10-Day Weather Forecast

Almanac

Astronomy

Apr. 29, 2017 Rise Set
Actual Time
Civil Twilight
Nautical Twilight
Astronomical Twilight
Moon
Length of Visible Light
Length of Day
Tomorrow will be .
, % of the Moon is Illuminated

Today's Extremes

State Highs State Lows

Community

WunderPhotos

WunderBlog® & News

Nearby

Air Quality

  Air Quality AQ Index Pollutant
Not available.

Snow Depth

Station Depth Elevation

Earthquake Activity

City Distance Mag. Time & Date
Minimum magnitude displayed is 2.5.

Coastal Water Temperatures

Place Temperature

Stations

Nearby Weather Stations

Station Location Temp. Windchill Dew Point Humidity Wind Precip. Elev Updated Type
                   

Watches & Warnings

There are currently no watches in effect.